createdAt,value
2023-01-21T00:01:31.484Z,40.80
2023-01-21T00:06:34.034Z,29.57
2023-01-21T00:11:36.830Z,37.80
2023-01-21T00:16:39.443Z,34.33
2023-01-21T00:21:42.127Z,36.50
2023-01-21T00:26:44.692Z,39.10
2023-01-21T00:31:47.591Z,38.87
2023-01-21T00:36:50.302Z,38.33
2023-01-21T00:41:52.877Z,42.00
2023-01-21T00:46:55.472Z,37.43
2023-01-21T00:51:58.067Z,32.53
2023-01-21T00:57:00.656Z,28.73
2023-01-21T01:02:03.779Z,35.27
2023-01-21T01:07:06.649Z,36.57
2023-01-21T01:12:09.158Z,36.73
2023-01-21T01:17:11.730Z,39.70
2023-01-21T01:22:14.242Z,35.00
2023-01-21T01:27:16.798Z,41.77
2023-01-21T01:32:19.291Z,37.07
2023-01-21T01:37:22.266Z,29.13
2023-01-21T01:42:24.922Z,41.30
2023-01-21T01:47:51.157Z,36.50
2023-01-21T01:52:55.156Z,38.13
2023-01-21T01:57:59.105Z,34.33
2023-01-21T02:03:20.335Z,35.93
2023-01-21T02:08:23.845Z,34.80
2023-01-21T02:13:28.595Z,36.93
2023-01-21T02:18:52.648Z,40.87
2023-01-21T02:24:00.791Z,41.13
2023-01-21T02:29:19.074Z,30.57
2023-01-21T02:34:32.749Z,22.90
2023-01-21T02:39:41.088Z,34.37
2023-01-21T02:44:50.687Z,28.60
2023-01-21T02:50:28.558Z,29.37
2023-01-21T02:55:35.650Z,32.17
2023-01-21T03:01:05.730Z,29.30
2023-01-21T03:06:20.048Z,28.33
2023-01-21T03:11:23.462Z,35.20
2023-01-21T03:16:49.671Z,33.23
2023-01-21T03:21:54.170Z,28.67
2023-01-21T03:27:00.208Z,26.33
2023-01-21T03:32:06.390Z,25.67
2023-01-21T03:37:14.820Z,19.13
2023-01-21T03:42:17.743Z,31.27
2023-01-21T03:47:26.515Z,27.17
2023-01-21T03:52:29.417Z,21.73
2023-01-21T03:57:31.894Z,25.90
2023-01-21T04:02:34.664Z,22.50
2023-01-21T04:07:37.195Z,26.70
2023-01-21T04:12:40.657Z,22.23
2023-01-21T04:17:43.104Z,10.10
2023-01-21T04:22:45.752Z,19.43
2023-01-21T04:27:48.207Z,15.50
2023-01-21T04:32:50.781Z,19.13
2023-01-21T04:37:53.346Z,20.03
2023-01-21T04:42:56.235Z,23.37
2023-01-21T04:47:58.844Z,22.53
2023-01-21T04:53:01.406Z,23.57
2023-01-21T04:58:04.015Z,23.40
2023-01-21T05:03:06.753Z,22.90
2023-01-21T05:08:09.195Z,18.07
2023-01-21T05:13:11.801Z,22.73
2023-01-21T05:18:14.338Z,22.47
2023-01-21T05:23:16.956Z,22.53
2023-01-21T05:28:19.461Z,19.20
2023-01-21T05:33:26.336Z,20.50
2023-01-21T05:38:29.367Z,23.40
2023-01-21T05:43:32.470Z,18.50
2023-01-21T05:48:35.057Z,17.27
2023-01-21T05:53:37.563Z,17.83
2023-01-21T05:58:40.147Z,18.77
2023-01-21T06:03:42.794Z,21.93
2023-01-21T06:08:45.278Z,16.57
2023-01-21T06:13:47.918Z,14.30
2023-01-21T06:18:50.534Z,8.77
2023-01-21T06:23:53.105Z,15.80
2023-01-21T06:28:57.184Z,13.30
2023-01-21T06:33:59.810Z,14.23
2023-01-21T06:39:02.321Z,13.13
2023-01-21T06:44:05.642Z,12.63
2023-01-21T06:49:08.185Z,12.47
2023-01-21T06:54:11.504Z,13.83
2023-01-21T06:59:14.113Z,15.07
2023-01-21T07:04:16.636Z,11.80
2023-01-21T07:09:19.843Z,9.30
2023-01-21T07:14:22.524Z,10.50
2023-01-21T07:19:25.041Z,11.13
2023-01-21T07:24:27.595Z,7.83
2023-01-21T07:29:30.160Z,20.63
2023-01-21T07:34:32.939Z,9.17
2023-01-21T07:39:35.527Z,9.33
2023-01-21T07:44:37.987Z,16.10
2023-01-21T07:49:41.104Z,7.00
2023-01-21T07:54:43.684Z,8.57
2023-01-21T07:59:46.230Z,8.73
2023-01-21T08:04:48.856Z,9.40
2023-01-21T08:09:51.447Z,8.33
2023-01-21T08:14:54.223Z,6.43
2023-01-21T08:19:57.391Z,7.87
2023-01-21T08:24:59.876Z,12.33
2023-01-21T08:30:02.340Z,11.23
2023-01-21T08:35:05.452Z,9.77
2023-01-21T08:40:08.791Z,6.47
2023-01-21T08:45:12.750Z,5.70
2023-01-21T08:50:16.717Z,9.53
2023-01-21T08:55:19.449Z,6.67
2023-01-21T09:00:23.891Z,6.23
2023-01-21T09:05:26.596Z,6.10
2023-01-21T09:10:47.592Z,5.17
2023-01-21T09:15:50.111Z,11.20
2023-01-21T09:20:52.981Z,9.00
2023-01-21T09:26:07.112Z,12.83
2023-01-21T09:31:13.905Z,18.97
2023-01-21T09:36:20.074Z,11.03
2023-01-21T09:41:40.475Z,7.00
2023-01-21T09:47:47.280Z,11.60
2023-01-21T09:52:59.944Z,7.83
2023-01-21T09:58:02.422Z,13.40
2023-01-21T10:03:05.081Z,7.63
2023-01-21T10:08:18.369Z,10.47
2023-01-21T10:13:42.392Z,5.33
2023-01-21T10:18:48.734Z,5.33
2023-01-21T10:24:01.169Z,4.13
2023-01-21T10:29:04.459Z,5.53
2023-01-21T10:34:14.997Z,4.57
2023-01-21T10:39:34.833Z,5.53
2023-01-21T10:45:15.485Z,5.30
2023-01-21T10:50:44.770Z,3.40
2023-01-21T10:55:59.143Z,3.43
2023-01-21T11:01:06.964Z,3.33
2023-01-21T11:06:13.488Z,3.50
2023-01-21T11:11:26.469Z,3.03
2023-01-21T11:16:45.403Z,7.73
2023-01-21T11:22:00.918Z,2.73
2023-01-21T11:27:03.574Z,2.47
2023-01-21T11:32:18.390Z,3.07
2023-01-21T11:37:26.400Z,2.60
2023-01-21T11:42:28.925Z,2.23
2023-01-21T11:47:53.763Z,2.10
2023-01-21T11:53:08.985Z,3.07
2023-01-21T11:58:23.835Z,1.97
2023-01-21T12:03:33.461Z,3.67
2023-01-21T12:08:38.732Z,1.70
2023-01-21T12:13:46.876Z,2.23
2023-01-21T12:19:03.100Z,2.40
2023-01-21T12:25:02.191Z,2.93
2023-01-21T12:30:16.521Z,2.10
2023-01-21T12:35:38.105Z,2.70
2023-01-21T12:40:46.657Z,2.63
2023-01-21T12:46:15.755Z,2.37
2023-01-21T12:51:27.399Z,2.37
2023-01-21T12:56:39.338Z,2.27
2023-01-21T13:01:53.597Z,2.13
2023-01-21T13:07:02.947Z,2.53
2023-01-21T13:12:17.352Z,1.73
2023-01-21T13:17:23.617Z,2.37
2023-01-21T13:23:05.056Z,3.37
2023-01-21T13:28:21.307Z,1.80
2023-01-21T13:33:35.517Z,1.97
2023-01-21T13:39:30.597Z,1.37
2023-01-21T13:44:45.197Z,1.83
2023-01-21T13:49:50.877Z,1.43
2023-01-21T13:55:13.039Z,2.83
2023-01-21T14:00:15.923Z,2.23
2023-01-21T14:05:34.639Z,2.97
2023-01-21T14:10:57.986Z,4.27
2023-01-21T14:16:09.790Z,3.10
2023-01-21T14:21:45.726Z,2.87
2023-01-21T14:26:51.317Z,3.13
2023-01-21T14:32:21.722Z,3.67
2023-01-21T14:37:45.550Z,2.30
2023-01-21T14:42:50.474Z,4.87
2023-01-21T14:47:54.869Z,4.03
2023-01-21T14:52:57.516Z,2.67
2023-01-21T14:58:01.821Z,3.63
2023-01-21T15:03:20.280Z,5.00
2023-01-21T15:08:28.072Z,3.00
2023-01-21T15:13:33.361Z,2.40
2023-01-21T15:18:51.056Z,3.83
2023-01-21T15:24:23.054Z,4.17
2023-01-21T15:29:34.214Z,3.53
2023-01-21T15:34:37.052Z,5.00
2023-01-21T15:39:39.559Z,6.33
2023-01-21T15:45:02.188Z,5.63
2023-01-21T15:50:49.354Z,7.23
2023-01-21T15:56:25.357Z,6.17
2023-01-21T16:01:30.993Z,3.77
2023-01-21T16:06:59.431Z,3.20
2023-01-21T16:12:39.300Z,5.77
2023-01-21T16:17:56.603Z,9.57
2023-01-21T16:23:02.662Z,5.30
2023-01-21T16:28:05.201Z,8.10
2023-01-21T16:33:15.936Z,8.57
2023-01-21T16:38:21.859Z,29.13
2023-01-21T16:43:27.361Z,8.93
2023-01-21T16:48:32.875Z,6.57
2023-01-21T16:53:35.406Z,15.77
2023-01-21T16:58:46.999Z,18.00
2023-01-21T17:03:49.687Z,13.73
2023-01-21T17:09:07.242Z,9.80
2023-01-21T17:14:10.520Z,13.67
2023-01-21T17:19:25.523Z,11.27
2023-01-21T17:24:43.893Z,15.17
2023-01-21T17:29:46.454Z,11.63
2023-01-21T17:35:12.628Z,16.80
2023-01-21T17:40:23.887Z,23.77
2023-01-21T17:45:31.546Z,22.13
2023-01-21T17:50:34.105Z,15.37
2023-01-21T17:55:38.334Z,8.33
2023-01-21T18:00:44.037Z,7.97
2023-01-21T18:05:46.913Z,12.93
2023-01-21T18:10:50.483Z,7.63
2023-01-21T18:15:54.272Z,9.10
2023-01-21T18:20:57.147Z,6.57
2023-01-21T18:25:59.896Z,6.43
2023-01-21T18:31:02.592Z,7.80
2023-01-21T18:36:06.363Z,6.03
2023-01-21T18:41:11.882Z,6.10
2023-01-21T18:46:16.484Z,9.27
2023-01-21T18:51:19.664Z,6.53
2023-01-21T18:56:22.653Z,6.13
2023-01-21T19:01:25.749Z,5.83
2023-01-21T19:06:28.982Z,6.10
2023-01-21T19:11:32.207Z,8.53
2023-01-21T19:16:35.198Z,44.17
2023-01-21T19:21:38.689Z,5.30
2023-01-21T19:26:41.931Z,11.63
2023-01-21T19:31:45.326Z,36.97
2023-01-21T19:36:48.955Z,8.37
2023-01-21T19:42:07.125Z,8.37
2023-01-21T19:47:19.648Z,7.13
2023-01-21T19:52:22.871Z,6.70
2023-01-21T19:57:25.906Z,8.23
2023-01-21T20:02:29.771Z,6.20
2023-01-21T20:07:32.768Z,7.53
2023-01-21T20:12:35.959Z,4.70
2023-01-21T20:17:46.359Z,29.37
2023-01-21T20:22:50.180Z,5.80
2023-01-21T20:27:59.589Z,5.53
2023-01-21T20:33:03.211Z,15.73
2023-01-21T20:38:11.553Z,6.10
2023-01-21T20:43:16.132Z,4.50
2023-01-21T20:48:28.358Z,5.97
2023-01-21T20:53:31.947Z,5.67
2023-01-21T20:58:35.164Z,5.47
2023-01-21T21:03:38.486Z,6.77
2023-01-21T21:08:42.189Z,4.77
2023-01-21T21:13:48.547Z,25.53
2023-01-21T21:18:52.079Z,7.73
2023-01-21T21:23:55.397Z,6.50
2023-01-21T21:29:00.545Z,5.20
2023-01-21T21:34:04.628Z,5.50
2023-01-21T21:39:08.143Z,6.10
2023-01-21T21:44:12.246Z,4.40
2023-01-21T21:49:15.739Z,9.33
2023-01-21T21:54:18.852Z,7.23
2023-01-21T21:59:21.910Z,6.80
2023-01-21T22:04:25.185Z,7.30
2023-01-21T22:09:28.455Z,5.47
2023-01-21T22:14:31.398Z,5.67
2023-01-21T22:19:36.280Z,6.13
2023-01-21T22:24:40.668Z,9.63
2023-01-21T22:29:43.498Z,5.40
2023-01-21T22:34:46.129Z,9.93
2023-01-21T22:39:48.692Z,7.60
2023-01-21T22:44:51.469Z,13.77
2023-01-21T22:49:54.066Z,10.97
2023-01-21T22:54:56.626Z,4.77
2023-01-21T23:00:01.033Z,4.33
2023-01-21T23:05:05.045Z,4.77
2023-01-21T23:10:07.918Z,5.97
2023-01-21T23:15:10.711Z,7.20
2023-01-21T23:20:13.393Z,8.07
2023-01-21T23:25:15.920Z,8.97
2023-01-21T23:30:19.041Z,6.83
2023-01-21T23:35:21.751Z,7.40
2023-01-21T23:40:24.228Z,8.13
2023-01-21T23:45:26.828Z,6.20
2023-01-21T23:50:29.314Z,7.43
2023-01-21T23:55:31.827Z,12.43
